Time;durP1;ratioP1;P1;durP2;ratioP2;P2;SDS_P1;SDS_P2;PMS_P1;PMS_P2;Temp;Humidity;BMP_temperature;BMP_pressure;BME280_temperature;BME280_humidity;BME280_pressure;Samples;Min_cycle;Max_cycle;Signal;HPM_P1;HPM_P2
2023/11/02 00:00:36;;;;;;;5.40;4.20;;;;;;;6.80;91.39;97856.05;106621;1285;59975;-91
2023/11/02 00:03:07;;;;;;;3.80;2.10;;;;;;;6.79;91.62;97849.16;106811;1285;60285;-90
2023/11/02 00:05:53;;;;;;;4.40;2.80;;;;;;;6.79;91.76;97849.55;106834;1284;74582;-90
2023/11/02 00:08:24;;;;;;;4.00;3.50;;;;;;;6.79;91.90;97846.35;106862;1285;74819;-90
2023/11/02 00:10:51;;;;;;;5.70;3.20;;;;;;;6.78;92.07;97846.60;106539;1286;71467;-91
2023/11/02 00:13:26;;;;;;;5.70;3.20;;;;;;;6.78;91.76;97845.71;106420;1285;60118;-91
2023/11/02 00:15:54;;;;;;;3.90;2.00;;;;;;;6.78;91.73;97847.98;106375;1285;61687;-90
2023/11/02 00:18:22;;;;;;;3.10;2.30;;;;;;;6.78;91.70;97851.23;106407;1285;74021;-91
2023/11/02 00:20:59;;;;;;;3.50;2.50;;;;;;;6.79;91.93;97846.90;106379;1286;73603;-91
2023/11/02 00:23:43;;;;;;;5.00;2.60;;;;;;;6.79;91.98;97847.59;106499;1285;72446;-90
2023/11/02 00:26:11;;;;;;;4.30;2.40;;;;;;;6.80;91.65;97847.35;106822;1279;61103;-91
2023/11/02 00:28:39;;;;;;;3.30;2.20;;;;;;;6.80;91.61;97852.52;106618;1279;59648;-90
2023/11/02 00:31:06;;;;;;;5.10;2.50;;;;;;;6.80;91.65;97851.82;106688;1279;75898;-90
2023/11/02 00:33:33;;;;;;;2.90;2.30;;;;;;;6.78;91.52;97843.88;106721;1279;74111;-90
2023/11/02 00:36:01;;;;;;;4.10;2.70;;;;;;;6.78;91.50;97843.05;106700;1279;71392;-90
2023/11/02 00:38:29;;;;;;;2.50;2.00;;;;;;;6.75;91.31;97842.31;106586;1279;60956;-90
2023/11/02 00:40:57;;;;;;;2.80;2.30;;;;;;;6.72;91.04;97841.77;106763;1279;61658;-90
2023/11/02 00:43:25;;;;;;;5.80;2.10;;;;;;;6.69;91.28;97840.58;106923;1279;74771;-90
2023/11/02 00:45:52;;;;;;;2.50;1.90;;;;;;;6.67;91.49;97836.94;106722;1279;74609;-90
2023/11/02 00:48:31;;;;;;;2.80;2.00;;;;;;;6.66;91.71;97835.39;107021;1279;72809;-90
2023/11/02 00:51:24;;;;;;;4.90;2.30;;;;;;;6.67;91.99;97839.98;106771;1279;60307;-90
2023/11/02 00:54:05;;;;;;;1.90;1.40;;;;;;;6.67;92.13;97842.65;106910;1279;59127;-90
2023/11/02 00:56:36;;;;;;;2.30;2.10;;;;;;;6.67;92.22;97833.23;107137;1279;73375;-90
2023/11/02 00:59:04;;;;;;;6.00;1.90;;;;;;;6.66;92.63;97834.16;106829;1279;74918;-90
2023/11/02 01:01:32;;;;;;;4.70;2.10;;;;;;;6.67;92.68;97837.48;106814;1279;73460;-90
2023/11/02 01:04:26;;;;;;;2.50;1.90;;;;;;;6.69;93.01;97832.94;106759;1279;62064;-89
2023/11/02 01:06:53;;;;;;;;;;;;;;;6.71;93.08;97836.70;107073;1279;59310;-89
2023/11/02 01:09:48;;;;;;;3.10;2.00;;;;;;;6.71;92.83;97833.33;106818;1279;74490;-90
2023/11/02 01:12:18;;;;;;;2.20;1.60;;;;;;;6.70;92.82;97835.88;107049;1279;72417;-89
2023/11/02 01:14:48;;;;;;;2.40;1.60;;;;;;;6.70;92.77;97833.94;107049;1279;70558;-90
2023/11/02 01:17:23;;;;;;;4.30;1.70;;;;;;;6.70;92.91;97827.89;107052;1279;60748;-89
2023/11/02 01:25:45;;;;;;;4.40;1.90;;;;;;;6.68;92.11;97827.80;105578;1295;601073;-89
2023/11/02 01:28:21;;;;;;;2.70;2.20;;;;;;;6.64;92.04;97823.44;108336;1267;59937;-90
2023/11/02 01:31:00;;;;;;;4.20;2.30;;;;;;;6.62;92.06;97822.84;108278;1267;60230;-89
2023/11/02 01:33:34;;;;;;;2.50;1.70;;;;;;;6.60;91.82;97823.70;108268;1267;71426;-91
2023/11/02 01:36:03;;;;;;;3.90;2.00;;;;;;;6.58;91.68;97819.05;108333;1267;75759;-90
2023/11/02 01:38:31;;;;;;;1.70;1.50;;;;;;;6.55;91.48;97817.09;108067;1266;234157;-91
2023/11/02 01:41:04;;;;;;;2.60;1.50;;;;;;;6.52;91.57;97809.77;108584;1263;59803;-91
2023/11/02 01:43:56;;;;;;;3.10;2.30;;;;;;;6.49;91.87;97810.30;108654;1267;59211;-90
2023/11/02 01:46:43;;;;;;;2.70;1.70;;;;;;;6.46;92.14;97809.77;108676;1263;73309;-90
2023/11/02 01:49:14;;;;;;;5.60;2.10;;;;;;;6.44;92.60;97813.83;108596;1263;74556;-90
2023/11/02 01:51:52;;;;;;;2.40;2.00;;;;;;;6.41;93.14;97804.39;108640;1263;71561;-91
2023/11/02 01:54:23;;;;;;;3.90;2.80;;;;;;;6.40;93.59;97810.14;108494;1263;61231;-91
2023/11/02 01:56:59;;;;;;;4.10;3.20;;;;;;;6.40;94.00;97807.52;108584;1263;60226;-91
2023/11/02 01:59:32;;;;;;;3.60;2.60;;;;;;;6.39;94.34;97801.16;108491;1262;73436;-89
2023/11/02 02:02:19;;;;;;;5.70;3.00;;;;;;;6.38;94.21;97798.19;108633;1262;75060;-89
2023/11/02 02:04:47;;;;;;;3.90;2.60;;;;;;;6.37;94.14;97802.55;108519;1263;72320;-90
2023/11/02 02:07:28;;;;;;;8.40;5.30;;;;;;;6.35;94.19;97791.80;108526;1263;61145;-89
2023/11/02 02:10:11;;;;;;;9.60;8.30;;;;;;;6.34;94.45;97792.73;108595;1263;61040;-90
2023/11/02 02:13:22;;;;;;;35.40;19.10;;;;;;;6.34;95.00;97795.77;108958;1260;73149;-89
2023/11/02 02:16:05;;;;;;;24.50;17.30;;;;;;;6.34;95.61;97796.65;108902;1260;73181;-89
2023/11/02 02:19:15;;;;;;;17.30;12.30;;;;;;;6.33;95.96;97791.02;108660;1260;73829;-90
2023/11/02 02:21:59;;;;;;;9.30;7.20;;;;;;;6.34;96.23;97794.34;108606;1265;59683;-90
2023/11/02 02:24:37;;;;;;;10.10;7.20;;;;;;;6.32;95.64;97796.04;108462;1266;59168;-89
2023/11/02 02:27:29;;;;;;;13.50;8.10;;;;;;;6.30;95.58;97801.51;108639;1266;73306;-90
2023/11/02 02:30:49;;;;;;;7.10;6.20;;;;;;;6.29;95.88;97793.08;108114;1264;74806;-89
2023/11/02 02:33:54;;;;;;;6.20;5.60;;;;;;;6.26;95.83;97791.08;107875;1272;71243;-89
2023/11/02 02:36:45;;;;;;;8.80;5.40;;;;;;;6.25;95.81;97792.60;107598;1271;61360;-89
2023/11/02 02:39:17;;;;;;;6.10;4.40;;;;;;;6.22;95.32;97788.13;107267;1277;61365;-90
2023/11/02 02:41:45;;;;;;;7.30;3.60;;;;;;;6.19;95.17;97784.77;107619;1277;71768;-90
2023/11/02 02:44:13;;;;;;;5.40;3.40;;;;;;;6.18;94.92;97783.83;107255;1277;72818;-89
2023/11/02 02:46:40;;;;;;;5.60;3.60;;;;;;;6.13;94.46;97781.38;107177;1277;71441;-90
2023/11/02 02:49:08;;;;;;;4.60;3.50;;;;;;;6.08;94.72;97783.13;107166;1277;61125;-89
2023/11/02 02:51:38;;;;;;;4.50;2.60;;;;;;;6.04;95.40;97778.41;107143;1277;59440;-90
2023/11/02 02:54:08;;;;;;;2.80;1.90;;;;;;;6.00;96.23;97782.54;107067;1277;72819;-89
2023/11/02 02:56:36;;;;;;;1.90;1.40;;;;;;;5.99;97.18;97779.21;107275;1277;73550;-88
2023/11/02 02:59:04;;;;;;;3.10;2.40;;;;;;;5.99;98.71;97782.07;107383;1273;72829;-89
2023/11/02 03:01:37;;;;;;;1.70;1.50;;;;;;;6.01;99.22;97780.36;107671;1273;59955;-90
2023/11/02 03:04:06;;;;;;;1.10;0.90;;;;;;;6.03;99.99;97775.27;107756;1274;60040;-90
2023/11/02 03:06:34;;;;;;;3.10;1.60;;;;;;;6.04;100.00;97772.67;107981;1273;71638;-89
2023/11/02 03:09:02;;;;;;;1.30;1.20;;;;;;;6.06;100.00;97773.70;107863;1267;74261;-90
2023/11/02 03:11:30;;;;;;;3.40;1.00;;;;;;;6.06;100.00;97772.75;108141;1267;72008;-91
2023/11/02 03:13:57;;;;;;;3.10;1.20;;;;;;;6.08;100.00;97771.20;108200;1266;60034;-91
2023/11/02 03:16:24;;;;;;;1.40;1.30;;;;;;;6.09;100.00;97767.43;108338;1260;60354;-90
2023/11/02 03:18:52;;;;;;;1.10;0.90;;;;;;;6.09;100.00;97766.34;108674;1260;71378;-90
2023/11/02 03:21:20;;;;;;;2.10;1.30;;;;;;;6.10;100.00;97759.53;108785;1261;73859;-89
2023/11/02 03:23:57;;;;;;;1.70;1.50;;;;;;;6.11;100.00;97766.39;108711;1260;70245;-90
2023/11/02 03:26:32;;;;;;;2.10;1.20;;;;;;;6.13;100.00;97761.63;108713;1260;61052;-90
2023/11/02 03:29:12;;;;;;;1.30;1.20;;;;;;;6.15;100.00;97759.08;108834;1260;59104;-90
2023/11/02 03:32:00;;;;;;;1.40;0.90;;;;;;;6.16;100.00;97758.47;108847;1260;72685;-90
2023/11/02 03:34:27;;;;;;;1.70;1.60;;;;;;;6.18;100.00;97758.90;108766;1260;74294;-91
2023/11/02 03:37:04;;;;;;;2.40;1.60;;;;;;;6.18;100.00;97757.65;108837;1260;71897;-91
2023/11/02 03:40:13;;;;;;;1.00;1.00;;;;;;;6.19;100.00;97754.42;108730;1260;60759;-91
2023/11/02 03:43:09;;;;;;;1.30;1.20;;;;;;;6.16;100.00;97751.20;108788;1260;59046;-90
2023/11/02 03:45:56;;;;;;;1.30;1.10;;;;;;;6.10;100.00;97746.56;108715;1260;73114;-91
2023/11/02 03:48:48;;;;;;;5.10;2.10;;;;;;;6.04;100.00;97753.52;108799;1259;75404;-90
2023/11/02 03:51:39;;;;;;;3.20;1.60;;;;;;;6.00;100.00;97756.75;108806;1259;71394;-90
2023/11/02 03:54:25;;;;;;;3.80;1.90;;;;;;;5.98;100.00;97752.65;108824;1260;60190;-90
2023/11/02 03:57:17;;;;;;;1.70;1.30;;;;;;;5.96;100.00;97752.05;108941;1260;59096;-89
2023/11/02 04:00:07;;;;;;;3.30;2.90;;;;;;;5.94;100.00;97749.65;109043;1260;71797;-89
2023/11/02 04:03:00;;;;;;;4.40;3.80;;;;;;;5.93;100.00;97747.42;109063;1260;74157;-89
2023/11/02 04:05:28;;;;;;;17.20;11.70;;;;;;;5.90;100.00;97740.81;108984;1261;71478;-91
2023/11/02 04:08:10;;;;;;;16.90;10.90;;;;;;;5.90;100.00;97739.45;108960;1260;60284;-90
2023/11/02 04:10:51;;;;;;;26.50;17.20;;;;;;;5.89;100.00;97734.84;108968;1260;59028;-91
2023/11/02 04:13:18;;;;;;;24.10;16.80;;;;;;;5.89;100.00;97734.31;109018;1260;72975;-91
2023/11/02 04:15:45;;;;;;;17.80;13.00;;;;;;;5.90;100.00;97735.36;109038;1260;74384;-89
2023/11/02 04:18:13;;;;;;;17.40;11.10;;;;;;;5.90;100.00;97733.38;109030;1260;71237;-91
2023/11/02 04:20:40;;;;;;;16.50;13.00;;;;;;;5.92;100.00;97733.27;108974;1260;59708;-89
2023/11/02 04:23:08;;;;;;;12.80;9.30;;;;;;;5.93;100.00;97728.94;108873;1260;59884;-89
2023/11/02 04:25:35;;;;;;;14.00;10.50;;;;;;;5.94;100.00;97729.58;108976;1260;73489;-90
2023/11/02 04:28:02;;;;;;;12.20;10.00;;;;;;;5.94;100.00;97733.30;109024;1260;74027;-90
2023/11/02 04:30:31;;;;;;;7.70;6.20;;;;;;;5.95;100.00;97730.59;108998;1260;72992;-89
2023/11/02 04:32:59;;;;;;;5.80;4.90;;;;;;;5.96;100.00;97727.36;109029;1260;59658;-90
2023/11/02 04:35:26;;;;;;;9.40;6.20;;;;;;;5.96;100.00;97720.59;108952;1260;60233;-89
2023/11/02 04:38:03;;;;;;;7.60;5.40;;;;;;;5.96;100.00;97720.41;109040;1260;72002;-89
2023/11/02 04:40:31;;;;;;;3.50;2.50;;;;;;;5.95;100.00;97716.20;109021;1260;74376;-88
2023/11/02 04:42:59;;;;;;;6.70;2.70;;;;;;;5.94;100.00;97716.80;109016;1260;71117;-90
2023/11/02 04:45:31;;;;;;;2.30;1.80;;;;;;;5.93;100.00;97715.27;109014;1260;59580;-89
2023/11/02 04:47:58;;;;;;;3.00;1.70;;;;;;;5.93;100.00;97715.97;109155;1260;60408;-90
2023/11/02 04:50:25;;;;;;;2.00;1.80;;;;;;;5.94;100.00;97711.63;109177;1260;71776;-88
2023/11/02 04:52:54;;;;;;;2.50;1.60;;;;;;;5.95;100.00;97712.80;109080;1261;74094;-89
2023/11/02 04:55:21;;;;;;;2.40;1.90;;;;;;;5.96;100.00;97712.05;109006;1260;71702;-90
2023/11/02 04:57:48;;;;;;;2.80;1.90;;;;;;;5.97;100.00;97716.11;109133;1260;60919;-90
2023/11/02 05:00:15;;;;;;;8.40;6.80;;;;;;;5.97;100.00;97710.20;109060;1260;60003;-89
2023/11/02 05:02:42;;;;;;;17.70;12.80;;;;;;;5.99;100.00;97714.02;109034;1259;71885;-90
2023/11/02 05:05:09;;;;;;;11.40;7.30;;;;;;;6.00;100.00;97710.25;109184;1258;72798;-89
2023/11/02 05:07:37;;;;;;;8.10;6.50;;;;;;;6.01;100.00;97708.75;108822;1259;71536;-91
2023/11/02 05:10:04;;;;;;;14.10;10.00;;;;;;;6.01;100.00;97711.41;108780;1259;61046;-92
2023/11/02 05:12:32;;;;;;;28.40;20.00;;;;;;;6.01;100.00;97713.68;108833;1258;59134;-90
2023/11/02 05:14:59;;;;;;;12.70;9.30;;;;;;;6.01;100.00;97711.20;108778;1259;72335;-90
2023/11/02 05:17:27;;;;;;;3.50;3.20;;;;;;;6.01;100.00;97709.05;108757;1259;74540;-90
2023/11/02 05:19:54;;;;;;;4.70;2.70;;;;;;;6.01;100.00;97713.38;108864;1260;72770;-91
2023/11/02 05:22:21;;;;;;;5.10;2.30;;;;;;;6.00;100.00;97709.86;108772;1260;62154;-91
2023/11/02 05:24:48;;;;;;;5.20;3.50;;;;;;;6.01;100.00;97705.21;108857;1259;60011;-91
2023/11/02 05:27:15;;;;;;;24.70;20.20;;;;;;;6.02;100.00;97709.23;108793;1260;72471;-91
2023/11/02 05:29:43;;;;;;;10.10;8.70;;;;;;;6.02;100.00;97706.17;108849;1259;71964;-91
2023/11/02 05:32:10;;;;;;;4.10;3.10;;;;;;;6.03;100.00;97707.75;108766;1260;72890;-90
2023/11/02 05:34:51;;;;;;;4.80;2.70;;;;;;;6.03;100.00;97713.04;108826;1260;59926;-91
2023/11/02 05:37:41;;;;;;;5.20;4.60;;;;;;;6.05;100.00;97718.10;108875;1259;60836;-89
2023/11/02 05:40:12;;;;;;;7.00;6.40;;;;;;;6.05;100.00;97717.36;108901;1260;74713;-89
2023/11/02 05:42:48;;;;;;;5.80;3.80;;;;;;;6.06;100.00;97716.60;108837;1260;74268;-90
2023/11/02 05:45:21;;;;;;;2.90;2.20;;;;;;;6.07;100.00;97723.84;108743;1260;73556;-90
2023/11/02 05:47:49;;;;;;;4.50;3.20;;;;;;;6.09;100.00;97721.77;108883;1260;60421;-90
2023/11/02 05:50:18;;;;;;;3.80;2.90;;;;;;;6.11;100.00;97719.13;108905;1260;59271;-91
2023/11/02 05:52:47;;;;;;;3.30;2.90;;;;;;;6.12;100.00;97717.27;108740;1259;72352;-91
2023/11/02 05:55:15;;;;;;;2.50;2.20;;;;;;;6.14;100.00;97712.55;108759;1260;73257;-91
2023/11/02 05:57:42;;;;;;;2.70;2.50;;;;;;;6.16;100.00;97720.24;108792;1258;72452;-91
2023/11/02 06:00:11;;;;;;;3.50;2.50;;;;;;;6.19;100.00;97722.02;108943;1259;62055;-90
2023/11/02 06:02:42;;;;;;;2.60;2.30;;;;;;;6.22;100.00;97724.48;108782;1260;61294;-91
2023/11/02 06:05:17;;;;;;;2.20;2.00;;;;;;;6.26;100.00;97726.02;108552;1264;74352;-90
2023/11/02 06:07:46;;;;;;;3.30;3.00;;;;;;;6.31;100.00;97722.17;108644;1262;74093;-91
2023/11/02 06:10:13;;;;;;;2.20;1.80;;;;;;;6.36;100.00;97718.15;108251;1263;72471;-90
2023/11/02 06:15:11;;;;;;;2.80;2.30;;;;;;;6.47;100.00;97713.34;105518;1294;601418;-91
2023/11/02 06:17:42;;;;;;;5.40;2.80;;;;;;;6.50;100.00;97716.66;108287;1266;60927;-90
2023/11/02 06:20:17;;;;;;;5.80;2.40;;;;;;;6.56;100.00;97717.26;108136;1269;59137;-90
2023/11/02 06:22:45;;;;;;;2.40;2.00;;;;;;;6.60;100.00;97707.88;108047;1266;72647;-89
2023/11/02 06:25:24;;;;;;;4.80;3.90;;;;;;;6.64;100.00;97706.94;108255;1267;75614;-90
2023/11/02 06:27:51;;;;;;;6.00;3.30;;;;;;;6.68;100.00;97701.88;108218;1266;338453;-89
2023/11/02 06:30:19;;;;;;;9.00;4.70;;;;;;;6.72;100.00;97697.86;108763;1267;62247;-87
2023/11/02 06:32:54;;;;;;;6.50;3.80;;;;;;;6.77;100.00;97698.98;108439;1266;62086;-89
2023/11/02 06:35:23;;;;;;;7.80;4.90;;;;;;;6.82;100.00;97695.60;108406;1265;72765;-90
2023/11/02 06:37:57;;;;;;;6.40;4.70;;;;;;;6.88;100.00;97696.45;108554;1266;74599;-90
2023/11/02 06:40:25;;;;;;;3.90;3.00;;;;;;;6.94;100.00;97687.71;108341;1267;73964;-90
2023/11/02 06:42:57;;;;;;;5.50;2.90;;;;;;;7.00;100.00;97682.32;108268;1266;60030;-91
2023/11/02 06:45:29;;;;;;;3.00;2.40;;;;;;;7.08;100.00;97681.84;108124;1266;60800;-90
2023/11/02 06:48:03;;;;;;;4.80;3.20;;;;;;;7.15;100.00;97677.02;108281;1266;73569;-91
2023/11/02 06:50:46;;;;;;;;;;;;;;;;;;;;;
2023/11/02 06:53:32;;;;;;;7.20;5.40;;;;;;;7.33;100.00;97670.18;108391;1265;73088;-90
2023/11/02 06:56:21;;;;;;;6.20;5.10;;;;;;;7.42;100.00;97668.46;108638;1266;60192;-90
2023/11/02 06:59:04;;;;;;;12.70;11.30;;;;;;;7.54;100.00;97670.14;108042;1273;59320;-93
2023/11/02 07:01:39;;;;;;;12.10;10.90;;;;;;;7.65;100.00;97670.11;107813;1272;71815;-89
2023/11/02 07:04:10;;;;;;;10.60;8.40;;;;;;;7.78;100.00;97672.11;107859;1275;72872;-89
2023/11/02 07:06:41;;;;;;;9.40;7.00;;;;;;;7.88;100.00;97668.35;108093;1275;72070;-89
2023/11/02 07:09:20;;;;;;;6.50;4.10;;;;;;;8.00;100.00;97669.48;108730;1262;60519;-87
2023/11/02 07:11:49;;;;;;;6.20;4.50;;;;;;;8.11;100.00;97669.42;108538;1262;59478;-86
2023/11/02 07:14:20;;;;;;;5.70;4.80;;;;;;;8.22;100.00;97665.62;108734;1261;73007;-89
2023/11/02 07:16:49;;;;;;;3.80;3.20;;;;;;;8.32;100.00;97664.34;108545;1254;74660;-89
2023/11/02 07:19:26;;;;;;;4.80;2.80;;;;;;;8.43;100.00;97660.55;108994;1254;72570;-88
2023/11/02 07:25:05;;;;;;;11.10;9.40;;;;;;;8.69;100.00;97650.08;105546;1294;600512;-88
2023/11/02 07:27:35;;;;;;;11.90;10.80;;;;;;;8.80;100.00;97645.05;108436;1266;61602;-91
2023/11/02 07:30:07;;;;;;;7.60;6.90;;;;;;;8.91;100.00;97643.48;108350;1266;59650;-92
2023/11/02 07:32:35;;;;;;;5.80;4.10;;;;;;;9.03;100.00;97637.73;108403;1266;73290;-91
2023/11/02 07:35:02;;;;;;;3.90;2.50;;;;;;;9.16;100.00;97637.89;108685;1266;74630;-89
2023/11/02 07:37:30;;;;;;;4.50;3.80;;;;;;;9.27;100.00;97633.62;108423;1266;221177;-88
2023/11/02 07:40:00;;;;;;;8.80;3.40;;;;;;;9.40;100.00;97637.31;108949;1259;61231;-88
2023/11/02 07:42:31;;;;;;;5.90;3.00;;;;;;;9.51;100.00;97630.75;108751;1261;59475;-92
2023/11/02 07:45:10;;;;;;;8.90;4.00;;;;;;;9.63;100.00;97632.15;108754;1259;71154;-89
2023/11/02 07:47:47;;;;;;;;;;;;;;;9.74;100.00;97631.08;108779;1262;75203;-92
2023/11/02 07:50:31;;;;;;;15.60;14.20;;;;;;;9.86;100.00;97622.81;108451;1262;71783;-91
2023/11/02 07:52:59;;;;;;;5.80;3.20;;;;;;;9.97;100.00;97620.68;108574;1265;62143;-91
2023/11/02 07:55:26;;;;;;;3.80;1.60;;;;;;;10.11;99.93;97616.57;108546;1265;59309;-90
2023/11/02 07:57:53;;;;;;;3.00;1.40;;;;;;;10.23;98.54;97614.16;108490;1264;74112;-89
2023/11/02 08:00:20;;;;;;;6.10;2.20;;;;;;;10.34;96.90;97610.06;108391;1265;74205;-89
2023/11/02 08:02:51;;;;;;;4.10;2.00;;;;;;;10.47;95.87;97610.33;108404;1262;73519;-89
2023/11/02 08:05:20;;;;;;;3.20;2.10;;;;;;;10.58;94.98;97606.23;108636;1263;60942;-90
2023/11/02 08:07:52;;;;;;;5.60;2.20;;;;;;;10.68;93.54;97602.36;108594;1264;59201;-90
2023/11/02 08:11:08;;;;;;;6.70;1.90;;;;;;;10.78;93.27;97598.61;108525;1257;71969;31
2023/11/02 08:13:47;;;;;;;2.40;1.50;;;;;;;10.90;92.19;97596.77;108249;1267;73302;-90
2023/11/02 08:19:22;;;;;;;1.70;1.10;;;;;;;11.11;90.24;97594.50;108317;1265;60974;-89
2023/11/02 08:22:18;;;;;;;4.90;2.00;;;;;;;11.19;89.34;97592.69;108293;1263;60473;-92
2023/11/02 08:24:49;;;;;;;6.30;4.00;;;;;;;11.30;88.31;97597.89;108424;1265;73721;-91
2023/11/02 08:27:56;;;;;;;5.30;2.50;;;;;;;11.40;88.00;97594.52;108720;1264;73273;-88
2023/11/02 08:30:25;;;;;;;5.60;4.10;;;;;;;11.48;86.93;97588.98;108643;1266;74070;-90
2023/11/02 08:32:52;;;;;;;3.70;2.20;;;;;;;11.56;85.07;97585.05;108629;1266;61649;-85
2023/11/02 08:35:21;;;;;;;1.50;1.20;;;;;;;11.66;86.07;97586.96;108510;1265;59744;-87
2023/11/02 08:37:49;;;;;;;3.50;0.90;;;;;;;11.73;86.09;97579.98;108483;1265;71403;-87
2023/11/02 08:40:18;;;;;;;2.20;1.60;;;;;;;11.82;85.56;97588.40;108131;1265;73037;-87
2023/11/02 08:42:48;;;;;;;2.90;1.40;;;;;;;11.89;85.84;97583.84;108136;1265;71621;-90
2023/11/02 08:45:21;;;;;;;2.10;1.60;;;;;;;11.96;84.75;97580.58;108246;1267;62488;-88
2023/11/02 08:48:07;;;;;;;5.40;4.50;;;;;;;12.05;83.27;97586.11;108206;1265;60844;-89
2023/11/02 08:50:35;;;;;;;4.80;3.90;;;;;;;12.12;82.76;97582.77;108203;1265;73605;-89
2023/11/02 08:53:02;;;;;;;2.30;2.10;;;;;;;12.19;81.96;97581.27;108321;1265;73357;-90
2023/11/02 08:55:35;;;;;;;1.40;1.00;;;;;;;12.26;80.13;97572.14;108423;1265;72292;-89
2023/11/02 08:58:06;;;;;;;6.60;3.30;;;;;;;12.34;78.54;97572.95;108231;1265;62177;-93
2023/11/02 09:00:38;;;;;;;6.10;4.70;;;;;;;12.42;78.88;97569.54;108339;1264;59163;-88
2023/11/02 09:03:06;;;;;;;5.50;4.10;;;;;;;12.49;77.87;97567.98;108626;1265;74134;-89
2023/11/02 09:06:14;;;;;;;2.00;1.10;;;;;;;12.56;77.01;97570.72;108633;1265;72090;31
2023/11/02 09:08:43;;;;;;;3.20;2.60;;;;;;;12.63;76.23;97573.82;107463;1279;71898;-89
2023/11/02 09:11:11;;;;;;;3.80;3.30;;;;;;;12.69;75.79;97558.42;107614;1277;60736;-89
2023/11/02 09:13:38;;;;;;;2.20;1.80;;;;;;;12.74;74.95;97562.08;107333;1278;60024;-89
2023/11/02 09:16:06;;;;;;;3.00;1.60;;;;;;;12.80;73.74;97560.67;107315;1277;72998;-90
2023/11/02 09:18:34;;;;;;;1.50;0.80;;;;;;;12.86;72.93;97557.41;107340;1276;74145;-89
2023/11/02 09:21:04;;;;;;;3.10;1.20;;;;;;;12.92;72.08;97556.31;107318;1276;72976;-89
2023/11/02 09:23:34;;;;;;;3.40;1.30;;;;;;;13.00;71.41;97554.72;107339;1276;60996;-89
2023/11/02 09:26:06;;;;;;;1.50;1.40;;;;;;;13.09;70.72;97547.46;107153;1276;59094;-90
2023/11/02 09:28:40;;;;;;;5.10;1.50;;;;;;;13.16;70.85;97543.64;107255;1276;71983;-91
2023/11/02 09:31:32;;;;;;;;;;;;;;;;;;;;;
2023/11/02 09:34:19;;;;;;;1.40;1.10;;;;;;;13.39;71.10;97535.33;107209;1276;72777;-90
2023/11/02 09:36:48;;;;;;;2.20;1.30;;;;;;;13.49;70.65;97525.20;107352;1276;59556;-90
2023/11/02 09:39:17;;;;;;;2.80;1.40;;;;;;;13.61;70.53;97515.41;107274;1276;60737;-90
2023/11/02 09:41:49;;;;;;;4.30;1.40;;;;;;;13.73;69.95;97509.14;107252;1276;72164;-91
2023/11/02 09:44:18;;;;;;;4.40;3.10;;;;;;;13.88;69.34;97503.09;107266;1276;74227;-89
2023/11/02 09:46:49;;;;;;;3.50;1.70;;;;;;;14.03;68.67;97491.02;108087;1270;72357;-91
2023/11/02 09:49:18;;;;;;;2.10;1.20;;;;;;;14.19;67.97;97495.90;108137;1268;61362;-89
2023/11/02 09:51:55;;;;;;;2.40;1.30;;;;;;;14.35;67.49;97483.35;108264;1268;59307;-89
2023/11/02 09:55:04;;;;;;;3.70;2.40;;;;;;;14.56;66.62;97478.25;108207;1266;74831;-89
2023/11/02 09:57:32;;;;;;;2.80;2.50;;;;;;;14.70;65.69;97477.04;107965;1267;74279;-89
2023/11/02 09:59:59;;;;;;;3.80;1.40;;;;;;;14.83;63.99;97478.56;108234;1268;70599;-88
2023/11/02 10:02:39;;;;;;;3.40;1.10;;;;;;;14.95;63.70;97476.98;108095;1267;60402;-89
2023/11/02 10:05:10;;;;;;;3.50;1.20;;;;;;;15.08;63.72;97477.34;108300;1265;60216;-88
2023/11/02 10:07:40;;;;;;;4.80;1.00;;;;;;;15.20;63.28;97471.95;108351;1264;71580;-89
2023/11/02 10:10:10;;;;;;;4.20;2.70;;;;;;;15.31;63.03;97463.80;108422;1265;73936;-90
2023/11/02 10:12:43;;;;;;;5.20;2.60;;;;;;;15.42;62.16;97457.61;108369;1264;71345;-90
2023/11/02 10:15:13;;;;;;;4.20;2.00;;;;;;;15.51;61.32;97454.84;108457;1264;59768;-87
2023/11/02 10:17:43;;;;;;;4.20;2.00;;;;;;;15.58;60.91;97449.42;108778;1264;59128;-89
2023/11/02 10:20:15;;;;;;;2.70;2.00;;;;;;;15.64;60.69;97443.96;108504;1267;72114;-88
2023/11/02 10:23:03;;;;;;;4.80;2.60;;;;;;;15.72;60.97;97445.43;108306;1265;74966;-89
2023/11/02 10:25:30;;;;;;;5.10;2.50;;;;;;;15.80;60.58;97440.79;108343;1263;72673;-89
2023/11/02 10:28:00;;;;;;;3.00;1.60;;;;;;;15.89;60.36;97439.88;108430;1264;59131;-88
2023/11/02 10:30:30;;;;;;;4.30;2.10;;;;;;;16.00;60.10;97437.83;108422;1264;59257;-89
2023/11/02 10:33:05;;;;;;;3.30;1.30;;;;;;;16.10;59.63;97430.80;108162;1267;72767;-89
2023/11/02 10:35:39;;;;;;;1.70;1.00;;;;;;;16.22;59.13;97422.48;108217;1264;74365;-89
2023/11/02 10:38:09;;;;;;;1.20;0.80;;;;;;;16.34;58.34;97425.16;108380;1264;73215;-89
2023/11/02 10:40:45;;;;;;;1.50;0.70;;;;;;;16.45;57.12;97424.81;108331;1265;60312;-90
2023/11/02 10:43:19;;;;;;;2.10;0.90;;;;;;;16.54;55.85;97418.79;108144;1265;61016;-89
2023/11/02 10:46:03;;;;;;;1.60;0.90;;;;;;;16.59;54.26;97406.66;108425;1264;74132;-88
2023/11/02 10:48:31;;;;;;;2.60;1.60;;;;;;;16.60;53.96;97412.54;108387;1263;72306;-88
2023/11/02 10:50:59;;;;;;;4.60;1.70;;;;;;;16.59;53.75;97411.40;108638;1263;71448;-86
2023/11/02 10:53:38;;;;;;;2.20;0.80;;;;;;;16.55;53.55;97409.06;108721;1263;59422;-88
2023/11/02 10:56:09;;;;;;;1.80;0.70;;;;;;;16.51;53.59;97409.17;108756;1263;59441;-89
2023/11/02 10:58:36;;;;;;;2.40;1.80;;;;;;;16.48;53.75;97410.94;108720;1264;73462;-88
2023/11/02 11:01:04;;;;;;;4.90;1.80;;;;;;;16.46;53.95;97402.73;108749;1265;74225;-88
2023/11/02 11:03:31;;;;;;;2.40;1.20;;;;;;;16.43;53.73;97401.41;108701;1265;71324;-88
2023/11/02 11:05:59;;;;;;;3.10;1.70;;;;;;;16.41;53.01;97394.75;108646;1265;60471;-88
2023/11/02 11:08:27;;;;;;;3.30;2.80;;;;;;;16.39;52.58;97395.27;108418;1265;59507;-88
2023/11/02 11:10:55;;;;;;;7.20;3.90;;;;;;;16.38;52.60;97395.47;108525;1264;73750;-88
2023/11/02 11:13:23;;;;;;;7.50;4.30;;;;;;;16.36;52.84;97393.81;108568;1264;73147;-88
2023/11/02 11:15:50;;;;;;;6.50;4.50;;;;;;;16.37;52.86;97388.86;108490;1264;72217;-89
2023/11/02 11:18:17;;;;;;;4.40;3.10;;;;;;;16.38;53.02;97391.61;108535;1263;59967;-89
2023/11/02 11:20:45;;;;;;;2.00;1.40;;;;;;;16.38;52.80;97388.01;108261;1263;61518;-88
2023/11/02 11:23:14;;;;;;;7.00;2.50;;;;;;;16.37;52.77;97383.23;108612;1263;72887;-89
2023/11/02 11:26:01;;;;;;;5.90;3.00;;;;;;;16.35;52.83;97384.73;108506;1263;75078;-89
2023/11/02 11:28:30;;;;;;;4.40;3.10;;;;;;;16.32;52.55;97382.04;108561;1263;73617;-89
2023/11/02 11:30:58;;;;;;;3.80;2.80;;;;;;;16.27;53.24;97377.27;108376;1264;59504;-89
2023/11/02 11:33:48;;;;;;;4.30;3.00;;;;;;;16.25;53.21;97374.40;108399;1264;60258;-89
2023/11/02 11:36:27;;;;;;;3.10;2.00;;;;;;;16.23;52.46;97376.08;108476;1264;72824;-88
2023/11/02 11:38:56;;;;;;;2.40;1.50;;;;;;;16.21;52.62;97377.06;108316;1264;76975;-89
2023/11/02 11:41:45;;;;;;;2.80;1.90;;;;;;;16.20;52.77;97374.21;108362;1264;73530;-89
2023/11/02 11:44:22;;;;;;;2.10;1.00;;;;;;;16.19;52.72;97369.67;108478;1264;59180;-88
2023/11/02 11:46:54;;;;;;;3.50;1.70;;;;;;;16.17;53.06;97369.91;108474;1264;59280;-88
2023/11/02 11:49:39;;;;;;;5.30;2.80;;;;;;;16.14;53.00;97364.38;108353;1264;73801;-87
2023/11/02 11:52:23;;;;;;;3.30;1.70;;;;;;;16.10;53.14;97360.51;108579;1265;74033;-89
2023/11/02 11:54:51;;;;;;;2.60;1.50;;;;;;;16.05;53.38;97361.29;108468;1266;71158;-89
2023/11/02 11:57:51;;;;;;;3.10;1.50;;;;;;;16.00;53.81;97355.89;108368;1267;59477;-89
2023/11/02 12:00:24;;;;;;;2.70;1.70;;;;;;;15.93;54.32;97348.09;108200;1267;59792;-88
2023/11/02 12:02:55;;;;;;;1.60;1.00;;;;;;;15.87;54.61;97340.60;108170;1265;74238;-89
2023/11/02 12:05:42;;;;;;;2.10;0.90;;;;;;;15.83;54.60;97338.46;108053;1266;74245;-89
2023/11/02 12:08:14;;;;;;;2.10;1.20;;;;;;;15.78;54.55;97337.46;108028;1267;73680;-89
2023/11/02 12:10:45;;;;;;;1.90;1.40;;;;;;;15.75;54.68;97336.45;108064;1266;59947;-89
2023/11/02 12:13:13;;;;;;;2.50;1.30;;;;;;;15.74;54.94;97337.27;108238;1266;60097;-89
2023/11/02 12:15:57;;;;;;;2.80;1.60;;;;;;;15.75;55.29;97336.09;108304;1266;72620;-89